MSC Don Giovanni — 3FIV6 — position and weather

sailwx.info

Track history (hours):
 
Tides and Currents Weather Stations Pressure Air Temp Water Temp Dewpoint Dewpoint Depression Visibility Wind Speed Wind Dir Waves Ship Positions

MSC Don Giovanni

Last reported at 2018-Jun-22 07:28 UTC. Time now 2018-Jun-22 07:43 UTC.
Position N 37°57' E 023°35'.

Length 203 m; draft 9.7 m.

Type: Ship (hazmat cat A). MMSI: 356579000.

Date/timePositionNaut miles runAvg speedWind from/ knotsBaromVisibWave heightAir tempDewpointWater temp
2018-Jun-22 07:28N 37°57' E 023°35'0 0.0
2018-Jun-22 06:58N 37°57' E 023°35'0 0.0
2018-Jun-22 06:28N 37°57' E 023°35'0 0.0
2018-Jun-22 06:00N 37°57' E 023°35'2 3.4
2018-Jun-22 05:30N 37°56' E 023°35'2 4.1
2018-Jun-22 05:00N 37°54' E 023°35'1 1.4
2018-Jun-22 04:30N 37°53' E 023°36'0 0.2
2018-Jun-22 04:00N 37°53' E 023°36'0 0.3
2018-Jun-22 03:30N 37°53' E 023°36'0 0.2
2018-Jun-22 03:00N 37°53' E 023°36'2 4.8
2018-Jun-22 02:30N 37°51' E 023°38'5 9.9
2018-Jun-22 02:00N 37°47' E 023°41'713.3
2018-Jun-22 01:30N 37°41' E 023°45'713.3
2018-Jun-22 01:00N 37°35' E 023°48'714.3
2018-Jun-22 00:30N 37°28' E 023°46'815.8
2018-Jun-22 00:00N 37°20' E 023°44'815.6
2018-Jun-21 23:30N 37°12' E 023°43'815.9
2018-Jun-21 23:00N 37°05' E 023°41'815.9
2018-Jun-21 22:30N 36°57' E 023°37'816.2
2018-Jun-21 22:00N 36°50' E 023°33'816.3
2018-Jun-21 21:30N 36°43' E 023°28'37616.2
2018-Jun-20 22:18N 37°51' E 015°43'816.1
2018-Jun-20 21:49N 37°57' E 015°36'516.3
2018-Jun-20 21:29N 38°02' E 015°35'816.2
2018-Jun-20 21:00N 38°10' E 015°35'714.1
2018-Jun-20 20:30N 38°16' E 015°40'611.1
2018-Jun-20 20:00N 38°20' E 015°43'4 8.8
2018-Jun-20 19:30N 38°23' E 015°48'4 9.1
2018-Jun-20 19:00N 38°27' E 015°52'2 4.3
2018-Jun-20 18:28N 38°27' E 015°54'0 0.0
2018-Jun-20 17:58N 38°27' E 015°54'0 0.0
2018-Jun-20 16:16N 38°27' E 015°54'0 0.0
2018-Jun-20 15:52N 38°27' E 015°54'0 0.0
2018-Jun-20 15:22N 38°27' E 015°54'0 0.0
2018-Jun-20 14:58N 38°27' E 015°54'0 0.0
2018-Jun-20 14:22N 38°27' E 015°54'0 0.0
2018-Jun-20 13:52N 38°27' E 015°54'0 0.0
2018-Jun-20 12:46N 38°27' E 015°54'0 0.0
2018-Jun-20 12:10N 38°27' E 015°54'0 0.0
2018-Jun-20 11:40N 38°27' E 015°54'0 0.0
2018-Jun-20 09:04N 38°27' E 015°54'0 0.0
2018-Jun-20 08:52N 38°27' E 015°54'0 0.0
2018-Jun-20 08:28N 38°27' E 015°54'0 0.0
2018-Jun-20 07:58N 38°27' E 015°54'0 0.0
2018-Jun-20 07:28N 38°27' E 015°54'0 0.0
2018-Jun-20 06:04N 38°27' E 015°54'0 0.0
2018-Jun-20 05:52N 38°27' E 015°54'0 0.0
2018-Jun-20 05:28N 38°27' E 015°54'0 0.0
2018-Jun-20 04:58N 38°27' E 015°54'0 0.0
2018-Jun-20 04:28N 38°27' E 015°54'0 0.0
2018-Jun-20 03:58N 38°27' E 015°54'0 0.0
2018-Jun-20 03:28N 38°27' E 015°54'0 0.0
2018-Jun-20 02:58N 38°27' E 015°54'0 0.0
2018-Jun-20 02:28N 38°27' E 015°54'0 0.0
2018-Jun-20 01:58N 38°27' E 015°54'0 0.0
2018-Jun-20 01:22N 38°27' E 015°54'0 0.0
2018-Jun-20 00:52N 38°27' E 015°54'0 0.0
2018-Jun-19 23:10N 38°27' E 015°54'0 0.0
2018-Jun-19 22:58N 38°27' E 015°54'0 0.0
2018-Jun-19 21:28N 38°27' E 015°54'0 0.0
2018-Jun-19 20:58N 38°27' E 015°54'0 0.0
2018-Jun-19 18:40N 38°27' E 015°54'0 0.0
2018-Jun-19 18:28N 38°27' E 015°54'0 0.0
2018-Jun-19 17:52N 38°27' E 015°54'0 0.0
2018-Jun-19 17:28N 38°27' E 015°54'0 0.0
2018-Jun-19 16:58N 38°27' E 015°54'0 0.0
2018-Jun-19 16:28N 38°27' E 015°54'0 0.0
2018-Jun-19 15:52N 38°27' E 015°54'0 0.0
2018-Jun-19 15:28N 38°27' E 015°54'0 0.0
2018-Jun-19 09:16N 38°27' E 015°54'0 0.0
2018-Jun-19 08:52N 38°27' E 015°54'0 0.0
2018-Jun-19 08:28N 38°27' E 015°54'0 0.0
2018-Jun-19 07:58N 38°27' E 015°54'0 0.0
2018-Jun-19 07:28N 38°27' E 015°54'0 0.0
2018-Jun-19 06:58N 38°27' E 015°54'0 0.0
2018-Jun-19 06:26N 38°27' E 015°54'0 0.0
2018-Jun-19 05:50N 38°27' E 015°54'0 0.0
2018-Jun-19 05:26N 38°27' E 015°54'0 0.0
2018-Jun-19 04:14N 38°27' E 015°54'0 0.0
2018-Jun-19 03:44N 38°27' E 015°54'0 0.0
2018-Jun-19 03:20N 38°27' E 015°54'0 0.0
2018-Jun-19 01:32N 38°27' E 015°54'0 0.0
2018-Jun-19 01:26N 38°27' E 015°54'0 0.0
2018-Jun-19 00:56N 38°27' E 015°54'0 0.0
2018-Jun-18 23:44N 38°27' E 015°54'0 0.0
2018-Jun-18 23:20N 38°27' E 015°54'0 0.0
2018-Jun-18 22:56N 38°27' E 015°54'0 0.0
2018-Jun-18 22:26N 38°27' E 015°54'0 0.0
2018-Jun-18 21:50N 38°27' E 015°54'0 0.0
2018-Jun-18 21:26N 38°27' E 015°54'0 0.0
2018-Jun-18 17:38N 38°27' E 015°54'0 0.0
2018-Jun-18 17:20N 38°27' E 015°54'0 0.0
2018-Jun-18 16:38N 38°27' E 015°54'0 0.0
2018-Jun-18 16:08N 38°27' E 015°54'0 0.0
2018-Jun-18 15:50N 38°27' E 015°54'0 0.0
2018-Jun-18 14:32N 38°27' E 015°54'0 0.0
2018-Jun-18 14:20N 38°27' E 015°54'0 0.0
2018-Jun-18 13:38N 38°27' E 015°54'0 0.0
2018-Jun-18 13:20N 38°27' E 015°54'0 0.0
2018-Jun-17 19:20N 38°27' E 015°54'0 0.0
2018-Jun-17 18:56N 38°27' E 015°54'0 0.0
2018-Jun-17 18:26N 38°27' E 015°54'0 0.0
2018-Jun-17 17:50N 38°27' E 015°54'0 0.0
2018-Jun-17 17:26N 38°27' E 015°54'0 0.0
2018-Jun-17 16:56N 38°27' E 015°54'0 0.0
2018-Jun-17 16:20N 38°27' E 015°54'0 0.0
2018-Jun-17 15:26N 38°27' E 015°54'0 0.0
2018-Jun-17 14:56N 38°27' E 015°54'0 0.0
2018-Jun-17 14:26N 38°27' E 015°54'0 0.0
2018-Jun-17 13:56N 38°27' E 015°54'0 0.0
2018-Jun-17 13:20N 38°27' E 015°54'0 0.0
2018-Jun-17 03:02N 38°27' E 015°54'0 0.0
2018-Jun-17 02:56N 38°27' E 015°54'0 0.0
2018-Jun-17 02:26N 38°27' E 015°54'0 0.0
2018-Jun-17 00:50N 38°27' E 015°54'0 0.0
2018-Jun-17 00:26N 38°27' E 015°54'0 0.0
2018-Jun-16 19:38N 38°27' E 015°54'0 0.0
2018-Jun-16 16:20N 38°27' E 015°54'0 0.3
2018-Jun-16 16:00N 38°27' E 015°54'2 3.7
2018-Jun-16 15:29N 38°27' E 015°52'6 6.0
2018-Jun-16 14:26N 38°22' E 015°47'512.2
2018-Jun-16 14:00N 38°17' E 015°43'713.6
2018-Jun-16 13:30N 38°13' E 015°37'612.4
2018-Jun-16 13:00N 38°07' E 015°36'612.4
2018-Jun-16 12:30N 38°00' E 015°36'712.4
2018-Jun-16 11:56N 37°54' E 015°39'512.3
2018-Jun-16 11:30N 37°50' E 015°44'713.0
2018-Jun-16 10:58N 37°49' E 015°53'613.3
2018-Jun-16 10:29N 37°47' E 016°01'36712.0
2018-Jun-15 03:57N 36°58' E 023°38'613.9
2018-Jun-15 03:30N 37°04' E 023°40'914.0
2018-Jun-15 02:52N 37°12' E 023°40'813.9
2018-Jun-15 02:16N 37°21' E 023°41'413.9
2018-Jun-15 02:00N 37°24' E 023°41'713.6
2018-Jun-15 01:31N 37°31' E 023°41'713.7
2018-Jun-15 01:00N 37°38' E 023°41'713.9
2018-Jun-15 00:30N 37°45' E 023°39'713.4
2018-Jun-15 00:01N 37°51' E 023°37'611.2
2018-Jun-14 23:30N 37°57' E 023°36'1 1.0
2018-Jun-14 22:59N 37°57' E 023°36'0 0.0
2018-Jun-14 22:26N 37°57' E 023°36'0 0.0
2018-Jun-14 21:59N 37°57' E 023°36'0 0.0
2018-Jun-14 21:29N 37°57' E 023°36'0 0.0
2018-Jun-14 20:59N 37°57' E 023°36'0 0.0
2018-Jun-14 20:29N 37°57' E 023°36'0 0.0
2018-Jun-14 19:59N 37°57' E 023°36'0 0.0
2018-Jun-14 19:29N 37°57' E 023°36'0 0.0
2018-Jun-14 18:59N 37°57' E 023°36'0 0.0
2018-Jun-14 18:29N 37°57' E 023°36'0 0.0
2018-Jun-14 17:59N 37°57' E 023°36'0 0.0
2018-Jun-14 17:29N 37°57' E 023°36'0 0.0
2018-Jun-14 16:59N 37°57' E 023°36'0 0.0
2018-Jun-14 16:29N 37°57' E 023°36'0 0.0
2018-Jun-14 15:59N 37°57' E 023°36'0 0.0
2018-Jun-14 15:29N 37°57' E 023°36'0 0.0
2018-Jun-14 14:59N 37°57' E 023°36'0 0.0
2018-Jun-14 14:29N 37°57' E 023°36'0 0.0
2018-Jun-14 13:59N 37°57' E 023°36'0 0.0
2018-Jun-14 13:29N 37°57' E 023°36'0 0.0
2018-Jun-14 12:59N 37°57' E 023°36'0 0.0
2018-Jun-14 12:29N 37°57' E 023°36'0 0.0
2018-Jun-14 11:59N 37°57' E 023°36'0 0.0
2018-Jun-14 11:29N 37°57' E 023°36'0 0.0
2018-Jun-14 10:59N 37°57' E 023°36'0 0.0
2018-Jun-14 10:29N 37°57' E 023°36'0 0.0
2018-Jun-14 09:59N 37°57' E 023°36'0 0.0
2018-Jun-14 09:29N 37°57' E 023°36'0 0.0
2018-Jun-14 08:59N 37°57' E 023°36'0 0.0
2018-Jun-14 08:29N 37°57' E 023°36'0 0.0
2018-Jun-14 07:59N 37°57' E 023°36'0 0.0
2018-Jun-14 07:29N 37°57' E 023°36'0 0.0
2018-Jun-14 06:59N 37°57' E 023°36'0 0.0
2018-Jun-14 06:29N 37°57' E 023°36'0 0.0
2018-Jun-14 05:59N 37°57' E 023°36'0 0.0
2018-Jun-14 05:26N 37°57' E 023°36'0 0.0
2018-Jun-14 04:59N 37°57' E 023°36'0 0.2
2018-Jun-14 04:30N 37°57' E 023°36'3 5.6
2018-Jun-14 04:00N 37°55' E 023°36'2 3.3
2018-Jun-14 03:30N 37°53' E 023°36'0 0.1
2018-Jun-14 03:00N 37°53' E 023°36'2 4.3
2018-Jun-14 02:30N 37°51' E 023°38'4 7.9
2018-Jun-14 02:00N 37°48' E 023°40'4 8.2
2018-Jun-14 01:30N 37°44' E 023°43'4 8.6
2018-Jun-14 01:00N 37°41' E 023°45'610.3
2018-Jun-14 00:27N 37°36' E 023°50'613.6
2018-Jun-14 00:00N 37°36' E 023°58'713.6
2018-Jun-13 23:30N 37°36' E 024°06'1313.3
2018-Jun-13 22:30N 37°44' E 024°19'  
Track history (hours):
 
Tides and Currents Weather Stations Pressure Air Temp Water Temp Dewpoint Dewpoint Depression Visibility Wind Speed Wind Dir Waves Ship Positions

MSC Don Giovanni

Last reported at 2018-Jun-22 07:28 UTC. Time now 2018-Jun-22 07:43 UTC.
Position N 37°57' E 023°35'.

Length 203 m; draft 9.7 m.

Type: Ship (hazmat cat A). MMSI: 356579000.

Date/timePositionNaut miles runAvg speedWind from/ knotsBaromVisibWave heightAir tempDewpointWater temp
2018-Jun-22 07:28N 37°57' E 023°35'0 0.0
2018-Jun-22 06:58N 37°57' E 023°35'0 0.0
2018-Jun-22 06:28N 37°57' E 023°35'0 0.0
2018-Jun-22 06:00N 37°57' E 023°35'2 3.4
2018-Jun-22 05:30N 37°56' E 023°35'2 4.1
2018-Jun-22 05:00N 37°54' E 023°35'1 1.4
2018-Jun-22 04:30N 37°53' E 023°36'0 0.2
2018-Jun-22 04:00N 37°53' E 023°36'0 0.3
2018-Jun-22 03:30N 37°53' E 023°36'0 0.2
2018-Jun-22 03:00N 37°53' E 023°36'2 4.8
2018-Jun-22 02:30N 37°51' E 023°38'5 9.9
2018-Jun-22 02:00N 37°47' E 023°41'713.3
2018-Jun-22 01:30N 37°41' E 023°45'713.3
2018-Jun-22 01:00N 37°35' E 023°48'714.3
2018-Jun-22 00:30N 37°28' E 023°46'815.8
2018-Jun-22 00:00N 37°20' E 023°44'815.6
2018-Jun-21 23:30N 37°12' E 023°43'815.9
2018-Jun-21 23:00N 37°05' E 023°41'815.9
2018-Jun-21 22:30N 36°57' E 023°37'816.2
2018-Jun-21 22:00N 36°50' E 023°33'816.3
2018-Jun-21 21:30N 36°43' E 023°28'37616.2
2018-Jun-20 22:18N 37°51' E 015°43'816.1
2018-Jun-20 21:49N 37°57' E 015°36'516.3
2018-Jun-20 21:29N 38°02' E 015°35'816.2
2018-Jun-20 21:00N 38°10' E 015°35'714.1
2018-Jun-20 20:30N 38°16' E 015°40'611.1
2018-Jun-20 20:00N 38°20' E 015°43'4 8.8
2018-Jun-20 19:30N 38°23' E 015°48'4 9.1
2018-Jun-20 19:00N 38°27' E 015°52'2 4.3
2018-Jun-20 18:28N 38°27' E 015°54'0 0.0
2018-Jun-20 17:58N 38°27' E 015°54'0 0.0
2018-Jun-20 16:16N 38°27' E 015°54'0 0.0
2018-Jun-20 15:52N 38°27' E 015°54'0 0.0
2018-Jun-20 15:22N 38°27' E 015°54'0 0.0
2018-Jun-20 14:58N 38°27' E 015°54'0 0.0
2018-Jun-20 14:22N 38°27' E 015°54'0 0.0
2018-Jun-20 13:52N 38°27' E 015°54'0 0.0
2018-Jun-20 12:46N 38°27' E 015°54'0 0.0
2018-Jun-20 12:10N 38°27' E 015°54'0 0.0
2018-Jun-20 11:40N 38°27' E 015°54'0 0.0
2018-Jun-20 09:04N 38°27' E 015°54'0 0.0
2018-Jun-20 08:52N 38°27' E 015°54'0 0.0
2018-Jun-20 08:28N 38°27' E 015°54'0 0.0
2018-Jun-20 07:58N 38°27' E 015°54'0 0.0
2018-Jun-20 07:28N 38°27' E 015°54'0 0.0
2018-Jun-20 06:04N 38°27' E 015°54'0 0.0
2018-Jun-20 05:52N 38°27' E 015°54'0 0.0
2018-Jun-20 05:28N 38°27' E 015°54'0 0.0
2018-Jun-20 04:58N 38°27' E 015°54'0 0.0
2018-Jun-20 04:28N 38°27' E 015°54'0 0.0
2018-Jun-20 03:58N 38°27' E 015°54'0 0.0
2018-Jun-20 03:28N 38°27' E 015°54'0 0.0
2018-Jun-20 02:58N 38°27' E 015°54'0 0.0
2018-Jun-20 02:28N 38°27' E 015°54'0 0.0
2018-Jun-20 01:58N 38°27' E 015°54'0 0.0
2018-Jun-20 01:22N 38°27' E 015°54'0 0.0
2018-Jun-20 00:52N 38°27' E 015°54'0 0.0
2018-Jun-19 23:10N 38°27' E 015°54'0 0.0
2018-Jun-19 22:58N 38°27' E 015°54'0 0.0
2018-Jun-19 21:28N 38°27' E 015°54'0 0.0
2018-Jun-19 20:58N 38°27' E 015°54'0 0.0
2018-Jun-19 18:40N 38°27' E 015°54'0 0.0
2018-Jun-19 18:28N 38°27' E 015°54'0 0.0
2018-Jun-19 17:52N 38°27' E 015°54'0 0.0
2018-Jun-19 17:28N 38°27' E 015°54'0 0.0
2018-Jun-19 16:58N 38°27' E 015°54'0 0.0
2018-Jun-19 16:28N 38°27' E 015°54'0 0.0
2018-Jun-19 15:52N 38°27' E 015°54'0 0.0
2018-Jun-19 15:28N 38°27' E 015°54'0 0.0
2018-Jun-19 09:16N 38°27' E 015°54'0 0.0
2018-Jun-19 08:52N 38°27' E 015°54'0 0.0
2018-Jun-19 08:28N 38°27' E 015°54'0 0.0
2018-Jun-19 07:58N 38°27' E 015°54'0 0.0
2018-Jun-19 07:28N 38°27' E 015°54'0 0.0
2018-Jun-19 06:58N 38°27' E 015°54'0 0.0
2018-Jun-19 06:26N 38°27' E 015°54'0 0.0
2018-Jun-19 05:50N 38°27' E 015°54'0 0.0
2018-Jun-19 05:26N 38°27' E 015°54'0 0.0
2018-Jun-19 04:14N 38°27' E 015°54'0 0.0
2018-Jun-19 03:44N 38°27' E 015°54'0 0.0
2018-Jun-19 03:20N 38°27' E 015°54'0 0.0
2018-Jun-19 01:32N 38°27' E 015°54'0 0.0
2018-Jun-19 01:26N 38°27' E 015°54'0 0.0
2018-Jun-19 00:56N 38°27' E 015°54'0 0.0
2018-Jun-18 23:44N 38°27' E 015°54'0 0.0
2018-Jun-18 23:20N 38°27' E 015°54'0 0.0
2018-Jun-18 22:56N 38°27' E 015°54'0 0.0
2018-Jun-18 22:26N 38°27' E 015°54'0 0.0
2018-Jun-18 21:50N 38°27' E 015°54'0 0.0
2018-Jun-18 21:26N 38°27' E 015°54'0 0.0
2018-Jun-18 17:38N 38°27' E 015°54'0 0.0
2018-Jun-18 17:20N 38°27' E 015°54'0 0.0
2018-Jun-18 16:38N 38°27' E 015°54'0 0.0
2018-Jun-18 16:08N 38°27' E 015°54'0 0.0
2018-Jun-18 15:50N 38°27' E 015°54'0 0.0
2018-Jun-18 14:32N 38°27' E 015°54'0 0.0
2018-Jun-18 14:20N 38°27' E 015°54'0 0.0
2018-Jun-18 13:38N 38°27' E 015°54'0 0.0
2018-Jun-18 13:20N 38°27' E 015°54'0 0.0
2018-Jun-17 19:20N 38°27' E 015°54'0 0.0
2018-Jun-17 18:56N 38°27' E 015°54'0 0.0
2018-Jun-17 18:26N 38°27' E 015°54'0 0.0
2018-Jun-17 17:50N 38°27' E 015°54'0 0.0
2018-Jun-17 17:26N 38°27' E 015°54'0 0.0
2018-Jun-17 16:56N 38°27' E 015°54'0 0.0
2018-Jun-17 16:20N 38°27' E 015°54'0 0.0
2018-Jun-17 15:26N 38°27' E 015°54'0 0.0
2018-Jun-17 14:56N 38°27' E 015°54'0 0.0
2018-Jun-17 14:26N 38°27' E 015°54'0 0.0
2018-Jun-17 13:56N 38°27' E 015°54'0 0.0
2018-Jun-17 13:20N 38°27' E 015°54'0 0.0
2018-Jun-17 03:02N 38°27' E 015°54'0 0.0
2018-Jun-17 02:56N 38°27' E 015°54'0 0.0
2018-Jun-17 02:26N 38°27' E 015°54'0 0.0
2018-Jun-17 00:50N 38°27' E 015°54'0 0.0
2018-Jun-17 00:26N 38°27' E 015°54'0 0.0
2018-Jun-16 19:38N 38°27' E 015°54'0 0.0
2018-Jun-16 16:20N 38°27' E 015°54'0 0.3
2018-Jun-16 16:00N 38°27' E 015°54'2 3.7
2018-Jun-16 15:29N 38°27' E 015°52'6 6.0
2018-Jun-16 14:26N 38°22' E 015°47'512.2
2018-Jun-16 14:00N 38°17' E 015°43'713.6
2018-Jun-16 13:30N 38°13' E 015°37'612.4
2018-Jun-16 13:00N 38°07' E 015°36'612.4
2018-Jun-16 12:30N 38°00' E 015°36'712.4
2018-Jun-16 11:56N 37°54' E 015°39'512.3
2018-Jun-16 11:30N 37°50' E 015°44'713.0
2018-Jun-16 10:58N 37°49' E 015°53'613.3
2018-Jun-16 10:29N 37°47' E 016°01'36712.0
2018-Jun-15 03:57N 36°58' E 023°38'613.9
2018-Jun-15 03:30N 37°04' E 023°40'914.0
2018-Jun-15 02:52N 37°12' E 023°40'813.9
2018-Jun-15 02:16N 37°21' E 023°41'413.9
2018-Jun-15 02:00N 37°24' E 023°41'713.6
2018-Jun-15 01:31N 37°31' E 023°41'713.7
2018-Jun-15 01:00N 37°38' E 023°41'713.9
2018-Jun-15 00:30N 37°45' E 023°39'713.4
2018-Jun-15 00:01N 37°51' E 023°37'611.2
2018-Jun-14 23:30N 37°57' E 023°36'1 1.0
2018-Jun-14 22:59N 37°57' E 023°36'0 0.0
2018-Jun-14 22:26N 37°57' E 023°36'0 0.0
2018-Jun-14 21:59N 37°57' E 023°36'0 0.0
2018-Jun-14 21:29N 37°57' E 023°36'0 0.0
2018-Jun-14 20:59N 37°57' E 023°36'0 0.0
2018-Jun-14 20:29N 37°57' E 023°36'0 0.0
2018-Jun-14 19:59N 37°57' E 023°36'0 0.0
2018-Jun-14 19:29N 37°57' E 023°36'0 0.0
2018-Jun-14 18:59N 37°57' E 023°36'0 0.0
2018-Jun-14 18:29N 37°57' E 023°36'0 0.0
2018-Jun-14 17:59N 37°57' E 023°36'0 0.0
2018-Jun-14 17:29N 37°57' E 023°36'0 0.0
2018-Jun-14 16:59N 37°57' E 023°36'0 0.0
2018-Jun-14 16:29N 37°57' E 023°36'0 0.0
2018-Jun-14 15:59N 37°57' E 023°36'0 0.0
2018-Jun-14 15:29N 37°57' E 023°36'0 0.0
2018-Jun-14 14:59N 37°57' E 023°36'0 0.0
2018-Jun-14 14:29N 37°57' E 023°36'0 0.0
2018-Jun-14 13:59N 37°57' E 023°36'0 0.0
2018-Jun-14 13:29N 37°57' E 023°36'0 0.0
2018-Jun-14 12:59N 37°57' E 023°36'0 0.0
2018-Jun-14 12:29N 37°57' E 023°36'0 0.0
2018-Jun-14 11:59N 37°57' E 023°36'0 0.0
2018-Jun-14 11:29N 37°57' E 023°36'0 0.0
2018-Jun-14 10:59N 37°57' E 023°36'0 0.0
2018-Jun-14 10:29N 37°57' E 023°36'0 0.0
2018-Jun-14 09:59N 37°57' E 023°36'0 0.0
2018-Jun-14 09:29N 37°57' E 023°36'0 0.0
2018-Jun-14 08:59N 37°57' E 023°36'0 0.0
2018-Jun-14 08:29N 37°57' E 023°36'0 0.0
2018-Jun-14 07:59N 37°57' E 023°36'0 0.0
2018-Jun-14 07:29N 37°57' E 023°36'0 0.0
2018-Jun-14 06:59N 37°57' E 023°36'0 0.0
2018-Jun-14 06:29N 37°57' E 023°36'0 0.0
2018-Jun-14 05:59N 37°57' E 023°36'0 0.0
2018-Jun-14 05:26N 37°57' E 023°36'0 0.0
2018-Jun-14 04:59N 37°57' E 023°36'0 0.2
2018-Jun-14 04:30N 37°57' E 023°36'3 5.6
2018-Jun-14 04:00N 37°55' E 023°36'2 3.3
2018-Jun-14 03:30N 37°53' E 023°36'0 0.1
2018-Jun-14 03:00N 37°53' E 023°36'2 4.3
2018-Jun-14 02:30N 37°51' E 023°38'4 7.9
2018-Jun-14 02:00N 37°48' E 023°40'4 8.2
2018-Jun-14 01:30N 37°44' E 023°43'4 8.6
2018-Jun-14 01:00N 37°41' E 023°45'610.3
2018-Jun-14 00:27N 37°36' E 023°50'613.6
2018-Jun-14 00:00N 37°36' E 023°58'713.6
2018-Jun-13 23:30N 37°36' E 024°06'1313.3
2018-Jun-13 22:30N 37°44' E 024°19'  

Dump ship's entire track history